createdAt,value
2019-03-09T00:00:24.043Z,1002.50
2019-03-09T00:01:25.389Z,1002.46
2019-03-09T00:02:26.821Z,1002.39
2019-03-09T00:03:28.205Z,1002.41
2019-03-09T00:04:29.600Z,1002.40
2019-03-09T00:05:31.118Z,1002.43
2019-03-09T00:06:32.586Z,1002.41
2019-03-09T00:07:33.976Z,1002.37
2019-03-09T00:08:35.490Z,1002.42
2019-03-09T00:09:36.884Z,1002.46
2019-03-09T00:10:38.266Z,1002.38
2019-03-09T00:11:39.650Z,1002.38
2019-03-09T00:12:44.624Z,1002.40
2019-03-09T00:13:46.004Z,1002.37
2019-03-09T00:14:47.397Z,1002.36
2019-03-09T00:15:48.785Z,1002.36
2019-03-09T00:16:50.172Z,1002.35
2019-03-09T00:17:51.569Z,1002.36
2019-03-09T00:18:52.955Z,1002.35
2019-03-09T00:19:54.341Z,1002.34
2019-03-09T00:20:55.734Z,1002.39
2019-03-09T00:21:57.120Z,1002.39
2019-03-09T00:22:58.518Z,1002.43
2019-03-09T00:23:59.913Z,1002.36
2019-03-09T00:25:01.297Z,1002.34
2019-03-09T00:26:02.691Z,1002.33
2019-03-09T00:27:04.086Z,1002.39
2019-03-09T00:28:05.481Z,1002.35
2019-03-09T00:29:07.067Z,1002.35
2019-03-09T00:30:08.461Z,1002.36
2019-03-09T00:31:09.853Z,1002.33
2019-03-09T00:32:11.245Z,1002.29
2019-03-09T00:33:12.595Z,1002.31
2019-03-09T00:34:13.976Z,1002.27
2019-03-09T00:35:15.365Z,1002.23
2019-03-09T00:36:16.749Z,1002.29
2019-03-09T00:37:18.140Z,1002.28
2019-03-09T00:38:19.530Z,1002.23
2019-03-09T00:39:21.809Z,1002.22
2019-03-09T00:40:23.191Z,1002.17
2019-03-09T00:41:24.582Z,1002.17
2019-03-09T00:42:25.968Z,1002.16
2019-03-09T00:43:27.319Z,1002.11
2019-03-09T00:44:29.425Z,1002.11
2019-03-09T00:45:30.076Z,1002.10
2019-03-09T00:46:31.524Z,1002.12
2019-03-09T00:47:32.927Z,1002.11
2019-03-09T00:48:34.319Z,1002.08
2019-03-09T00:49:35.763Z,1002.10
2019-03-09T00:50:37.149Z,1002.10
2019-03-09T00:51:38.533Z,1002.11
2019-03-09T00:52:39.921Z,1002.02
2019-03-09T00:53:41.311Z,1002.07
2019-03-09T00:54:42.697Z,1002.09
2019-03-09T00:55:44.097Z,1002.12
2019-03-09T00:56:45.485Z,1002.10
2019-03-09T00:57:46.861Z,1002.18
2019-03-09T00:58:48.326Z,1002.16
2019-03-09T00:59:49.708Z,1002.12
2019-03-09T01:00:51.088Z,1002.11
2019-03-09T01:01:52.481Z,1002.03
2019-03-09T01:02:53.863Z,1002.02
2019-03-09T01:03:55.248Z,1002.03
2019-03-09T01:04:56.798Z,1001.96
2019-03-09T01:05:58.190Z,1001.97
2019-03-09T01:06:59.568Z,1001.87
2019-03-09T01:08:01.058Z,1001.85
2019-03-09T01:09:02.447Z,1001.83
2019-03-09T01:10:03.833Z,1001.80
2019-03-09T01:11:05.434Z,1001.77
2019-03-09T01:12:06.826Z,1001.76
2019-03-09T01:13:08.208Z,1001.75
2019-03-09T01:14:09.604Z,1001.68
2019-03-09T01:15:10.986Z,1001.69
2019-03-09T01:16:12.369Z,1001.61
2019-03-09T01:17:13.806Z,1001.72
2019-03-09T01:18:15.196Z,1001.62
2019-03-09T01:19:16.580Z,1001.55
2019-03-09T01:20:18.025Z,1001.52
2019-03-09T01:21:19.415Z,1001.51
2019-03-09T01:22:20.799Z,1001.56
2019-03-09T01:23:22.285Z,1001.56
2019-03-09T01:24:23.671Z,1001.54
2019-03-09T01:25:25.075Z,1001.45
2019-03-09T01:26:26.457Z,1001.40
2019-03-09T01:27:27.917Z,1001.38
2019-03-09T01:28:29.305Z,1001.36
2019-03-09T01:29:30.695Z,1001.34
2019-03-09T01:30:32.160Z,1001.29
2019-03-09T01:31:33.551Z,1001.22
2019-03-09T01:32:34.944Z,1001.23
2019-03-09T01:33:36.443Z,1001.12
2019-03-09T01:34:37.833Z,1001.12
2019-03-09T01:35:39.209Z,1001.13
2019-03-09T01:36:40.720Z,1001.03
2019-03-09T01:37:42.112Z,1000.97
2019-03-09T01:38:43.504Z,1000.89
2019-03-09T01:39:44.902Z,1000.83
2019-03-09T01:40:46.308Z,1000.82
2019-03-09T01:41:47.710Z,1000.82
2019-03-09T01:42:49.136Z,1000.84
2019-03-09T01:43:50.532Z,1000.83
2019-03-09T01:44:51.969Z,1000.82
2019-03-09T01:45:53.379Z,1000.84
2019-03-09T01:46:54.777Z,1000.81
2019-03-09T01:47:56.191Z,1000.81
2019-03-09T01:48:57.587Z,1000.83
2019-03-09T01:49:58.989Z,1000.75
2019-03-09T01:51:00.403Z,1000.80
2019-03-09T01:52:01.825Z,1000.79
2019-03-09T01:53:03.229Z,1000.76
2019-03-09T01:54:04.618Z,1000.73
2019-03-09T01:55:06.012Z,1000.68
2019-03-09T01:56:07.406Z,1000.64
2019-03-09T01:57:08.801Z,1000.65
2019-03-09T01:58:10.195Z,1000.65
2019-03-09T01:59:11.588Z,1000.60
2019-03-09T02:00:12.975Z,1000.58
2019-03-09T02:01:14.369Z,1000.59
2019-03-09T02:02:15.763Z,1000.56
2019-03-09T02:03:17.173Z,1000.55
2019-03-09T02:04:18.566Z,1000.59
2019-03-09T02:05:19.979Z,1000.53
2019-03-09T02:06:21.396Z,1000.51
2019-03-09T02:07:22.803Z,1000.47
2019-03-09T02:08:24.194Z,1000.48
2019-03-09T02:09:26.559Z,1000.44
2019-03-09T02:10:27.952Z,1000.42
2019-03-09T02:11:29.354Z,1000.42
2019-03-09T02:12:30.746Z,1000.37
2019-03-09T02:13:32.127Z,1000.35
2019-03-09T02:14:33.534Z,1000.35
2019-03-09T02:15:34.923Z,1000.34
2019-03-09T02:16:36.310Z,1000.33
2019-03-09T02:17:37.730Z,1000.35
2019-03-09T02:18:39.114Z,1000.32
2019-03-09T02:19:40.523Z,1000.30
2019-03-09T02:20:41.921Z,1000.31
2019-03-09T02:21:43.307Z,1000.26
2019-03-09T02:22:44.731Z,1000.19
2019-03-09T02:23:46.137Z,1000.23
2019-03-09T02:24:47.533Z,1000.13
2019-03-09T02:25:48.919Z,1000.11
2019-03-09T02:26:50.307Z,999.99
2019-03-09T02:27:51.706Z,999.99
2019-03-09T02:28:53.112Z,1000.07
2019-03-09T02:29:54.518Z,1000.01
2019-03-09T02:30:55.898Z,1000.04
2019-03-09T02:31:57.291Z,1000.03
2019-03-09T02:32:58.688Z,1000.10
2019-03-09T02:34:00.102Z,1000.07
2019-03-09T02:35:01.521Z,1000.02
2019-03-09T02:36:02.903Z,999.95
2019-03-09T02:37:04.310Z,1000.04
2019-03-09T02:38:05.741Z,999.90
2019-03-09T02:39:07.126Z,999.91
2019-03-09T02:40:08.527Z,999.85
2019-03-09T02:41:09.952Z,999.77
2019-03-09T02:42:11.328Z,999.79
2019-03-09T02:43:12.747Z,999.77
2019-03-09T02:44:14.156Z,999.76
2019-03-09T02:45:15.570Z,999.76
2019-03-09T02:46:16.955Z,999.68
2019-03-09T02:47:18.374Z,999.72
2019-03-09T02:48:19.760Z,999.68
2019-03-09T02:49:21.170Z,999.71
2019-03-09T02:50:22.565Z,999.67
2019-03-09T02:51:23.946Z,999.62
2019-03-09T02:52:25.413Z,999.60
2019-03-09T02:53:26.780Z,999.59
2019-03-09T02:54:28.192Z,999.53
2019-03-09T02:55:29.588Z,999.48
2019-03-09T02:56:30.990Z,999.47
2019-03-09T02:57:32.382Z,999.37
2019-03-09T02:58:33.760Z,999.29
2019-03-09T02:59:35.156Z,999.27
2019-03-09T03:00:36.542Z,999.23
2019-03-09T03:01:37.933Z,999.16
2019-03-09T03:02:39.329Z,999.10
2019-03-09T03:03:40.718Z,999.00
2019-03-09T03:04:42.110Z,998.99
2019-03-09T03:05:43.538Z,998.91
2019-03-09T03:06:44.943Z,998.86
2019-03-09T03:07:46.331Z,998.85
2019-03-09T03:08:48.605Z,998.78
2019-03-09T03:09:50.056Z,998.75
2019-03-09T03:10:51.431Z,998.68
2019-03-09T03:11:52.826Z,998.64
2019-03-09T03:12:54.224Z,998.68
2019-03-09T03:13:55.614Z,998.64
2019-03-09T03:14:57.001Z,998.59
2019-03-09T03:15:58.389Z,998.51
2019-03-09T03:16:59.779Z,998.59
2019-03-09T03:18:01.192Z,998.62
2019-03-09T03:19:02.597Z,998.60
2019-03-09T03:20:03.996Z,998.52
2019-03-09T03:21:05.406Z,998.55
2019-03-09T03:22:06.739Z,998.51
2019-03-09T03:23:08.124Z,998.48
2019-03-09T03:24:09.519Z,998.46
2019-03-09T03:25:10.900Z,998.44
2019-03-09T03:26:12.291Z,998.48
2019-03-09T03:27:13.681Z,998.46
2019-03-09T03:28:15.075Z,998.50
2019-03-09T03:29:16.462Z,998.48
2019-03-09T03:30:17.866Z,998.45
2019-03-09T03:31:19.257Z,998.40
2019-03-09T03:32:20.698Z,998.41
2019-03-09T03:33:22.010Z,998.39
2019-03-09T03:34:23.406Z,998.35
2019-03-09T03:35:24.838Z,998.35
2019-03-09T03:36:26.200Z,998.31
2019-03-09T03:37:27.590Z,998.30
2019-03-09T03:38:28.974Z,998.32
2019-03-09T03:39:30.390Z,998.35
2019-03-09T03:40:31.769Z,998.26
2019-03-09T03:41:33.167Z,998.24
2019-03-09T03:42:34.567Z,998.23
2019-03-09T03:43:35.956Z,998.24
2019-03-09T03:44:37.371Z,998.23
2019-03-09T03:45:38.759Z,998.22
2019-03-09T03:46:40.156Z,998.19
2019-03-09T03:47:41.557Z,998.19
2019-03-09T03:48:42.942Z,998.18
2019-03-09T03:49:44.341Z,998.13
2019-03-09T03:50:45.734Z,998.13
2019-03-09T03:51:47.142Z,998.12
2019-03-09T03:52:48.540Z,998.12
2019-03-09T03:53:49.935Z,998.10
2019-03-09T03:54:51.334Z,998.06
2019-03-09T03:55:52.751Z,998.11
2019-03-09T03:56:54.139Z,998.06
2019-03-09T03:57:55.549Z,997.94
2019-03-09T03:58:56.984Z,997.90
2019-03-09T03:59:58.336Z,997.86
2019-03-09T04:01:00.184Z,997.80
2019-03-09T04:02:01.570Z,997.78
2019-03-09T04:03:02.964Z,997.68
2019-03-09T04:04:04.346Z,997.63
2019-03-09T04:05:05.752Z,997.60
2019-03-09T04:06:07.133Z,997.57
2019-03-09T04:07:08.539Z,997.45
2019-03-09T04:08:09.920Z,997.37
2019-03-09T04:09:11.324Z,997.35
2019-03-09T04:10:12.720Z,997.34
2019-03-09T04:11:14.127Z,997.29
2019-03-09T04:12:15.518Z,997.21
2019-03-09T04:13:16.911Z,997.21
2019-03-09T04:14:18.299Z,997.12
2019-03-09T04:15:19.696Z,997.06
2019-03-09T04:16:21.122Z,997.07
2019-03-09T04:17:22.521Z,996.99
2019-03-09T04:18:23.937Z,997.07
2019-03-09T04:19:25.401Z,997.04
2019-03-09T04:20:26.703Z,997.05
2019-03-09T04:21:28.081Z,997.03
2019-03-09T04:22:29.501Z,997.05
2019-03-09T04:23:30.908Z,997.01
2019-03-09T04:24:32.309Z,997.03
2019-03-09T04:25:33.717Z,997.04
2019-03-09T04:26:35.119Z,996.95
2019-03-09T04:27:36.514Z,996.98
2019-03-09T04:28:37.913Z,996.94
2019-03-09T04:29:39.297Z,996.92
2019-03-09T04:30:40.701Z,996.85
2019-03-09T04:31:42.086Z,996.83
2019-03-09T04:32:44.146Z,996.79
2019-03-09T04:33:45.549Z,996.82
2019-03-09T04:34:46.961Z,996.77
2019-03-09T04:35:48.370Z,996.75
2019-03-09T04:36:49.759Z,996.67
2019-03-09T04:37:51.183Z,996.62
2019-03-09T04:38:52.596Z,996.60
2019-03-09T04:39:53.983Z,996.52
2019-03-09T04:40:55.429Z,996.57
2019-03-09T04:41:56.815Z,996.51
2019-03-09T04:42:58.224Z,996.49
2019-03-09T04:43:59.610Z,996.42
2019-03-09T04:45:01.069Z,996.41
2019-03-09T04:46:02.388Z,996.38
2019-03-09T04:47:03.783Z,996.46
2019-03-09T04:48:05.201Z,996.37
2019-03-09T04:49:07.584Z,996.30
2019-03-09T04:50:08.973Z,996.26
2019-03-09T04:51:10.380Z,996.28
2019-03-09T04:52:11.777Z,996.30
2019-03-09T04:53:13.201Z,996.23
2019-03-09T04:54:14.599Z,996.17
2019-03-09T04:55:15.994Z,996.17
2019-03-09T04:56:17.387Z,996.12
2019-03-09T04:57:18.790Z,996.16
2019-03-09T04:58:20.184Z,996.08
2019-03-09T04:59:21.584Z,996.13
2019-03-09T05:00:22.998Z,996.09
2019-03-09T05:01:24.393Z,995.98
2019-03-09T05:02:25.800Z,996.04
2019-03-09T05:03:27.198Z,995.95
2019-03-09T05:04:28.581Z,995.93
2019-03-09T05:05:29.988Z,995.90
2019-03-09T05:06:31.407Z,995.87
2019-03-09T05:07:32.810Z,995.76
2019-03-09T05:08:34.216Z,995.80
2019-03-09T05:09:35.604Z,995.83
2019-03-09T05:10:37.011Z,995.70
2019-03-09T05:11:38.397Z,995.68
2019-03-09T05:12:39.799Z,995.60
2019-03-09T05:13:41.222Z,995.60
2019-03-09T05:14:42.609Z,995.58
2019-03-09T05:15:44.042Z,995.59
2019-03-09T05:16:45.435Z,995.52
2019-03-09T05:17:46.823Z,995.49
2019-03-09T05:18:48.210Z,995.50
2019-03-09T05:19:49.609Z,995.51
2019-03-09T05:20:51.007Z,995.44
2019-03-09T05:21:52.395Z,995.39
2019-03-09T05:22:53.793Z,995.40
2019-03-09T05:23:55.164Z,995.35
2019-03-09T05:24:56.580Z,995.29
2019-03-09T05:25:57.987Z,995.29
2019-03-09T05:26:59.388Z,995.26
2019-03-09T05:28:00.802Z,995.19
2019-03-09T05:29:02.203Z,995.21
2019-03-09T05:30:03.621Z,995.19
2019-03-09T05:31:05.023Z,995.16
2019-03-09T05:32:06.412Z,995.12
2019-03-09T05:33:07.802Z,995.18
2019-03-09T05:34:09.198Z,995.13
2019-03-09T05:35:10.601Z,995.04
2019-03-09T05:36:12.020Z,995.04
2019-03-09T05:37:13.413Z,994.96
2019-03-09T05:38:14.815Z,994.97
2019-03-09T05:39:16.208Z,994.97
2019-03-09T05:40:17.589Z,994.99
2019-03-09T05:41:19.009Z,994.95
2019-03-09T05:42:20.405Z,994.94
2019-03-09T05:43:21.814Z,994.90
2019-03-09T05:44:23.221Z,994.84
2019-03-09T05:45:24.609Z,994.86
2019-03-09T05:46:26.003Z,994.78
2019-03-09T05:47:27.417Z,994.73
2019-03-09T05:48:28.806Z,994.77
2019-03-09T05:49:30.208Z,994.79
2019-03-09T05:50:31.601Z,994.71
2019-03-09T05:51:32.986Z,994.57
2019-03-09T05:52:34.400Z,994.67
2019-03-09T05:53:35.822Z,994.60
2019-03-09T05:54:37.214Z,994.65
2019-03-09T05:55:38.604Z,994.59
2019-03-09T05:56:39.990Z,994.49
2019-03-09T05:57:41.412Z,994.52
2019-03-09T05:58:42.798Z,994.41
2019-03-09T05:59:44.198Z,994.40
2019-03-09T06:00:45.606Z,994.32
2019-03-09T06:01:47.010Z,994.35
2019-03-09T06:02:48.430Z,994.31
2019-03-09T06:03:49.841Z,994.36
2019-03-09T06:04:51.317Z,994.29
2019-03-09T06:05:52.713Z,994.32
2019-03-09T06:06:54.126Z,994.28
2019-03-09T06:07:55.498Z,994.32
2019-03-09T06:08:56.921Z,994.33
2019-03-09T06:09:58.305Z,994.30
2019-03-09T06:10:59.788Z,994.23
2019-03-09T06:12:01.179Z,994.30
2019-03-09T06:13:02.579Z,994.37
2019-03-09T06:14:03.975Z,994.28
2019-03-09T06:15:05.370Z,994.25
2019-03-09T06:16:06.761Z,994.25
2019-03-09T06:17:08.164Z,994.20
2019-03-09T06:18:09.563Z,994.20
2019-03-09T06:19:10.951Z,994.19
2019-03-09T06:20:12.340Z,994.12
2019-03-09T06:21:13.728Z,994.12
2019-03-09T06:22:15.130Z,994.09
2019-03-09T06:23:16.521Z,994.09
2019-03-09T06:24:17.908Z,994.05
2019-03-09T06:25:19.299Z,994.06
2019-03-09T06:26:20.714Z,994.01
2019-03-09T06:27:22.101Z,994.02
2019-03-09T06:28:23.510Z,993.98
2019-03-09T06:29:24.968Z,993.83
2019-03-09T06:30:26.392Z,993.90
2019-03-09T06:31:27.787Z,993.88
2019-03-09T06:32:29.177Z,993.83
2019-03-09T06:33:30.567Z,993.81
2019-03-09T06:34:31.979Z,993.76
2019-03-09T06:35:33.373Z,993.74
2019-03-09T06:36:34.761Z,993.74
2019-03-09T06:37:36.153Z,993.74
2019-03-09T06:38:37.556Z,993.63
2019-03-09T06:39:38.943Z,993.56
2019-03-09T06:40:40.346Z,993.58
2019-03-09T06:41:41.737Z,993.70
2019-03-09T06:42:43.138Z,993.58
2019-03-09T06:43:44.559Z,993.55
2019-03-09T06:44:45.953Z,993.70
2019-03-09T06:45:47.373Z,993.56
2019-03-09T06:46:50.043Z,993.57
2019-03-09T06:47:50.098Z,993.51
2019-03-09T06:48:51.498Z,993.48
2019-03-09T06:49:52.904Z,993.51
2019-03-09T06:50:54.394Z,993.49
2019-03-09T06:51:55.796Z,993.46
2019-03-09T06:52:57.194Z,993.43
2019-03-09T06:53:58.600Z,993.53
2019-03-09T06:55:00.544Z,993.45
2019-03-09T06:56:01.930Z,993.44
2019-03-09T06:57:03.331Z,993.36
2019-03-09T06:58:04.738Z,993.44
2019-03-09T06:59:06.117Z,993.46
2019-03-09T07:00:07.527Z,993.49
2019-03-09T07:01:08.922Z,993.40
2019-03-09T07:02:10.393Z,993.39
2019-03-09T07:03:11.775Z,993.37
2019-03-09T07:04:13.249Z,993.38
2019-03-09T07:05:14.632Z,993.39
2019-03-09T07:06:16.101Z,993.37
2019-03-09T07:07:17.505Z,993.36
2019-03-09T07:08:18.958Z,993.39
2019-03-09T07:09:20.385Z,993.43
2019-03-09T07:10:21.793Z,993.34
2019-03-09T07:11:23.205Z,993.37
2019-03-09T07:12:24.593Z,993.34
2019-03-09T07:13:26.036Z,993.29
2019-03-09T07:14:27.476Z,993.22
2019-03-09T07:15:28.892Z,993.36
2019-03-09T07:16:30.299Z,993.33
2019-03-09T07:17:31.698Z,993.35
2019-03-09T07:18:33.086Z,993.32
2019-03-09T07:19:34.504Z,993.34
2019-03-09T07:20:35.906Z,993.33
2019-03-09T07:21:37.304Z,993.30
2019-03-09T07:22:38.713Z,993.34
2019-03-09T07:23:40.102Z,993.39
2019-03-09T07:24:41.516Z,993.37
2019-03-09T07:25:42.927Z,993.31
2019-03-09T07:26:44.322Z,993.26
2019-03-09T07:27:45.737Z,993.27
2019-03-09T07:28:47.142Z,993.14
2019-03-09T07:29:48.560Z,993.29
2019-03-09T07:30:49.973Z,993.18
2019-03-09T07:31:51.373Z,993.22
2019-03-09T07:32:52.776Z,993.20
2019-03-09T07:33:54.165Z,993.10
2019-03-09T07:34:55.569Z,993.13
2019-03-09T07:35:57.026Z,993.17
2019-03-09T07:36:58.405Z,993.17
2019-03-09T07:37:59.816Z,993.21
2019-03-09T07:39:01.214Z,993.13
2019-03-09T07:40:02.605Z,993.16
2019-03-09T07:41:04.003Z,993.20
2019-03-09T07:42:05.389Z,993.18
2019-03-09T07:43:06.820Z,993.10
2019-03-09T07:44:08.209Z,993.17
2019-03-09T07:45:09.621Z,993.13
2019-03-09T07:46:11.042Z,993.19
2019-03-09T07:47:12.456Z,993.26
2019-03-09T07:48:13.852Z,993.35
2019-03-09T07:49:15.258Z,993.33
2019-03-09T07:50:16.642Z,993.18
2019-03-09T07:51:18.042Z,993.43
2019-03-09T07:52:19.456Z,993.41
2019-03-09T07:53:20.859Z,993.38
2019-03-09T07:54:22.263Z,993.30
2019-03-09T07:55:23.714Z,993.40
2019-03-09T07:56:25.146Z,993.36
2019-03-09T07:57:27.662Z,993.35
2019-03-09T07:58:29.227Z,993.47
2019-03-09T07:59:30.737Z,993.49
2019-03-09T08:00:32.132Z,993.48
2019-03-09T08:01:33.577Z,993.48
2019-03-09T08:02:34.979Z,993.50
2019-03-09T08:03:36.379Z,993.44
2019-03-09T08:04:37.782Z,993.49
2019-03-09T08:05:39.199Z,993.39
2019-03-09T08:06:40.593Z,993.48
2019-03-09T08:07:42.006Z,993.54
2019-03-09T08:08:43.427Z,993.55
2019-03-09T08:09:44.846Z,993.57
2019-03-09T08:10:46.333Z,993.73
2019-03-09T08:11:47.771Z,993.62
2019-03-09T08:12:49.162Z,993.66
2019-03-09T08:13:50.551Z,993.60
2019-03-09T08:14:52.072Z,993.58
2019-03-09T08:15:53.482Z,993.62
2019-03-09T08:16:54.942Z,993.93
2019-03-09T08:17:56.377Z,994.13
2019-03-09T08:18:57.872Z,994.17
2019-03-09T08:19:59.233Z,996.05
2019-03-09T08:21:00.632Z,994.16
2019-03-09T08:22:02.049Z,993.71
2019-03-09T08:23:03.458Z,993.89
2019-03-09T08:24:04.852Z,994.75
2019-03-09T08:25:06.307Z,993.83
2019-03-09T08:26:07.703Z,993.85
2019-03-09T08:27:09.123Z,993.67
2019-03-09T08:28:10.546Z,993.92
2019-03-09T08:29:11.973Z,993.79
2019-03-09T08:30:13.364Z,993.77
2019-03-09T08:31:14.839Z,997.60
2019-03-09T08:32:16.160Z,994.11
2019-03-09T08:33:17.591Z,994.31
2019-03-09T08:34:18.979Z,995.18
2019-03-09T08:35:20.403Z,993.79
2019-03-09T08:36:21.829Z,993.84
2019-03-09T08:37:23.217Z,993.90
2019-03-09T08:38:24.651Z,993.82
2019-03-09T08:39:26.062Z,994.16
2019-03-09T08:40:27.460Z,999.11
2019-03-09T08:41:28.882Z,998.03
2019-03-09T08:42:30.282Z,999.33
2019-03-09T08:43:31.687Z,994.26
2019-03-09T08:44:33.067Z,993.74
2019-03-09T08:45:34.458Z,993.69
2019-03-09T08:46:35.866Z,994.31
2019-03-09T08:47:37.270Z,993.99
2019-03-09T08:48:38.666Z,993.84
2019-03-09T08:49:40.093Z,994.19
2019-03-09T08:50:41.471Z,994.27
2019-03-09T08:51:42.888Z,994.09
2019-03-09T08:52:44.322Z,997.38
2019-03-09T08:53:45.704Z,994.55
2019-03-09T08:54:47.107Z,997.37
2019-03-09T08:55:48.516Z,994.09
2019-03-09T08:56:50.017Z,994.09
2019-03-09T08:57:51.419Z,994.10
2019-03-09T08:58:52.857Z,995.12
2019-03-09T08:59:54.217Z,994.42
2019-03-09T09:00:55.625Z,996.59
2019-03-09T09:01:57.019Z,994.22
2019-03-09T09:02:58.421Z,994.18
2019-03-09T09:03:59.826Z,994.57
2019-03-09T09:05:01.232Z,994.78
2019-03-09T09:06:02.645Z,995.27
2019-03-09T09:07:04.056Z,994.86
2019-03-09T09:08:06.010Z,994.33
2019-03-09T09:09:07.417Z,995.57
2019-03-09T09:10:08.816Z,994.48
2019-03-09T09:11:10.227Z,994.24
2019-03-09T09:12:11.641Z,994.13
2019-03-09T09:13:13.038Z,993.97
2019-03-09T09:14:14.482Z,993.93
2019-03-09T09:15:15.872Z,993.82
2019-03-09T09:16:17.286Z,993.87
2019-03-09T09:17:18.686Z,993.75
2019-03-09T09:18:20.083Z,994.03
2019-03-09T09:19:21.489Z,994.18
2019-03-09T09:20:22.890Z,994.29
2019-03-09T09:21:24.291Z,994.19
2019-03-09T09:22:25.684Z,994.34
2019-03-09T09:23:27.078Z,994.35
2019-03-09T09:24:28.526Z,994.20
2019-03-09T09:25:29.958Z,994.13
2019-03-09T09:26:31.354Z,994.20
2019-03-09T09:27:32.750Z,994.41
2019-03-09T09:28:34.155Z,994.54
2019-03-09T09:29:35.561Z,994.69
2019-03-09T09:30:36.966Z,994.95
2019-03-09T09:31:38.388Z,994.64
2019-03-09T09:32:39.775Z,994.58
2019-03-09T09:33:41.177Z,994.62
2019-03-09T09:34:42.587Z,994.83
2019-03-09T09:35:44.003Z,995.20
2019-03-09T09:36:45.396Z,995.36
2019-03-09T09:37:46.827Z,995.00
2019-03-09T09:38:48.229Z,994.67
2019-03-09T09:39:49.635Z,995.16
2019-03-09T09:40:51.044Z,994.59
2019-03-09T09:41:52.440Z,995.17
2019-03-09T09:42:53.857Z,995.65
2019-03-09T09:43:55.259Z,995.62
2019-03-09T09:44:56.670Z,995.57
2019-03-09T09:45:58.070Z,995.56
2019-03-09T09:46:59.487Z,995.59
2019-03-09T09:48:00.901Z,995.58
2019-03-09T09:49:02.308Z,995.62
2019-03-09T09:50:03.735Z,995.68
2019-03-09T09:51:05.148Z,995.65
2019-03-09T09:52:06.562Z,995.66
2019-03-09T09:53:07.975Z,995.77
2019-03-09T09:54:09.395Z,995.80
2019-03-09T09:55:10.842Z,995.70
2019-03-09T09:56:12.249Z,995.72
2019-03-09T09:57:13.666Z,995.55
2019-03-09T09:58:15.069Z,995.15
2019-03-09T09:59:16.483Z,995.01
2019-03-09T10:00:17.889Z,995.71
2019-03-09T10:01:19.299Z,995.81
2019-03-09T10:02:20.711Z,996.11
2019-03-09T10:03:22.141Z,996.01
2019-03-09T10:04:23.556Z,995.71
2019-03-09T10:05:24.970Z,995.40
2019-03-09T10:06:27.109Z,995.51
2019-03-09T10:07:28.519Z,995.31
2019-03-09T10:08:29.932Z,995.41
2019-03-09T10:09:31.405Z,996.04
2019-03-09T10:10:32.767Z,995.31
2019-03-09T10:11:34.220Z,995.67
2019-03-09T10:12:35.635Z,995.62
2019-03-09T10:13:37.072Z,996.43
2019-03-09T10:14:38.496Z,997.74
2019-03-09T10:15:40.009Z,996.77
2019-03-09T10:16:41.482Z,995.70
2019-03-09T10:17:42.961Z,995.58
2019-03-09T10:18:44.444Z,995.76
2019-03-09T10:19:45.887Z,995.62
2019-03-09T10:20:47.339Z,996.12
2019-03-09T10:21:49.672Z,995.75
2019-03-09T10:22:51.098Z,995.84
2019-03-09T10:23:52.529Z,995.38
2019-03-09T10:24:53.970Z,995.76
2019-03-09T10:25:55.387Z,995.80
2019-03-09T10:26:56.823Z,995.36
2019-03-09T10:27:58.253Z,995.05
2019-03-09T10:28:59.730Z,995.96
2019-03-09T10:30:01.151Z,996.04
2019-03-09T10:31:02.571Z,995.32
2019-03-09T10:32:03.988Z,995.27
2019-03-09T10:33:05.414Z,995.76
2019-03-09T10:34:06.839Z,995.59
2019-03-09T10:35:08.261Z,995.52
2019-03-09T10:36:09.693Z,995.54
2019-03-09T10:37:11.138Z,995.10
2019-03-09T10:38:12.562Z,995.12
2019-03-09T10:39:13.980Z,994.95
2019-03-09T10:40:15.419Z,995.15
2019-03-09T10:41:16.850Z,995.01
2019-03-09T10:42:18.294Z,995.16
2019-03-09T10:43:19.722Z,995.14
2019-03-09T10:44:21.137Z,995.06
2019-03-09T10:45:22.549Z,995.35
2019-03-09T10:46:23.972Z,995.36
2019-03-09T10:47:25.384Z,995.40
2019-03-09T10:48:26.826Z,995.45
2019-03-09T10:49:28.260Z,995.38
2019-03-09T10:50:29.675Z,995.24
2019-03-09T10:51:31.078Z,995.39
2019-03-09T10:52:32.502Z,995.60
2019-03-09T10:53:33.917Z,995.30
2019-03-09T10:54:36.176Z,995.40
2019-03-09T10:55:36.719Z,995.29
2019-03-09T10:56:38.136Z,995.23
2019-03-09T10:57:39.550Z,995.36
2019-03-09T10:58:40.963Z,995.36
2019-03-09T10:59:42.383Z,995.36
2019-03-09T11:00:43.905Z,995.28
2019-03-09T11:01:45.311Z,995.49
2019-03-09T11:02:46.740Z,995.40
2019-03-09T11:03:48.186Z,995.21
2019-03-09T11:04:49.646Z,995.18
2019-03-09T11:05:51.067Z,995.57
2019-03-09T11:06:52.487Z,995.27
2019-03-09T11:07:53.958Z,995.26
2019-03-09T11:08:55.383Z,995.34
2019-03-09T11:09:57.624Z,995.10
2019-03-09T11:10:59.056Z,995.28
2019-03-09T11:12:00.464Z,995.31
2019-03-09T11:13:01.909Z,995.21
2019-03-09T11:14:03.328Z,995.19
2019-03-09T11:15:04.788Z,995.20
2019-03-09T11:16:06.209Z,995.04
2019-03-09T11:17:07.634Z,995.06
2019-03-09T11:18:09.173Z,995.12
2019-03-09T11:19:10.603Z,995.11
2019-03-09T11:20:12.042Z,995.27
2019-03-09T11:21:13.464Z,995.30
2019-03-09T11:22:14.903Z,995.28
2019-03-09T11:23:16.312Z,995.30
2019-03-09T11:24:17.748Z,995.27
2019-03-09T11:25:19.171Z,995.41
2019-03-09T11:26:20.651Z,995.44
2019-03-09T11:27:22.079Z,995.83
2019-03-09T11:28:23.518Z,995.71
2019-03-09T11:29:24.949Z,995.50
2019-03-09T11:30:26.408Z,995.61
2019-03-09T11:31:27.847Z,995.79
2019-03-09T11:32:29.256Z,995.86
2019-03-09T11:33:30.687Z,995.74
2019-03-09T11:34:32.130Z,995.69
2019-03-09T11:35:33.578Z,995.70
2019-03-09T11:36:35.036Z,995.64
2019-03-09T11:37:36.506Z,995.75
2019-03-09T11:38:37.996Z,995.63
2019-03-09T11:39:39.458Z,995.53
2019-03-09T11:40:40.924Z,995.65
2019-03-09T11:41:42.394Z,995.65
2019-03-09T11:42:43.909Z,995.73
2019-03-09T11:43:45.354Z,995.62
2019-03-09T11:44:46.833Z,995.73
2019-03-09T11:45:48.271Z,995.58
2019-03-09T11:46:49.716Z,995.41
2019-03-09T11:47:51.152Z,995.80
2019-03-09T11:48:52.605Z,995.82
2019-03-09T11:49:54.076Z,995.54
2019-03-09T11:50:55.518Z,995.37
2019-03-09T11:51:56.923Z,995.42
2019-03-09T11:52:58.345Z,995.44
2019-03-09T11:53:59.787Z,995.50
2019-03-09T11:55:01.212Z,995.37
2019-03-09T11:56:02.637Z,995.50
2019-03-09T11:57:04.063Z,995.48
2019-03-09T11:58:05.491Z,995.39
2019-03-09T11:59:06.921Z,995.62
2019-03-09T12:00:08.345Z,995.66
2019-03-09T12:01:09.768Z,995.38
2019-03-09T12:02:11.188Z,995.29
2019-03-09T12:03:12.600Z,995.34
2019-03-09T12:04:14.032Z,995.36
2019-03-09T12:05:15.462Z,995.32
2019-03-09T12:06:16.904Z,995.25
2019-03-09T12:07:18.514Z,995.28
2019-03-09T12:08:19.952Z,995.40
2019-03-09T12:09:21.398Z,995.41
2019-03-09T12:10:22.851Z,995.25
2019-03-09T12:11:24.280Z,995.22
2019-03-09T12:12:25.709Z,995.36
2019-03-09T12:13:27.867Z,995.36
2019-03-09T12:14:29.327Z,995.51
2019-03-09T12:15:30.760Z,995.62
2019-03-09T12:16:32.150Z,995.54
2019-03-09T12:17:33.574Z,995.69
2019-03-09T12:18:34.969Z,995.76
2019-03-09T12:19:36.382Z,995.65
2019-03-09T12:20:37.796Z,995.72
2019-03-09T12:21:39.228Z,995.86
2019-03-09T12:22:40.625Z,995.96
2019-03-09T12:23:42.034Z,995.67
2019-03-09T12:24:43.442Z,995.77
2019-03-09T12:25:44.855Z,995.68
2019-03-09T12:26:46.256Z,995.66
2019-03-09T12:27:47.677Z,995.70
2019-03-09T12:28:49.096Z,995.82
2019-03-09T12:29:50.497Z,995.73
2019-03-09T12:30:51.905Z,995.76
2019-03-09T12:31:53.341Z,995.82
2019-03-09T12:32:54.764Z,996.01
2019-03-09T12:33:56.156Z,995.99
2019-03-09T12:34:57.566Z,996.04
2019-03-09T12:35:59.006Z,995.89
2019-03-09T12:37:00.414Z,995.76
2019-03-09T12:38:01.826Z,995.80
2019-03-09T12:39:03.242Z,995.84
2019-03-09T12:40:04.646Z,995.84
2019-03-09T12:41:06.702Z,995.73